Time;durP1;ratioP1;P1;durP2;ratioP2;P2;SDS_P1;SDS_P2;PMS_P1;PMS_P2;Temp;Humidity;BMP_temperature;BMP_pressure;BME280_temperature;BME280_humidity;BME280_pressure;Samples;Min_cycle;Max_cycle;Signal;HPM_P1;HPM_P2
2024/01/19 00:02:24;;;;;;;56.58;36.15;;;;;;;6.96;100.00;99111.03;5090946;28;20602;-78
2024/01/19 00:04:50;;;;;;;57.90;36.40;;;;;;;7.12;100.00;99117.59;5090714;28;20036;-77
2024/01/19 00:07:15;;;;;;;58.67;35.53;;;;;;;7.01;100.00;99100.59;5090732;28;20021;-78
2024/01/19 00:09:40;;;;;;;54.38;35.97;;;;;;;7.14;100.00;99117.38;5096086;28;20040;-77
2024/01/19 00:12:08;;;;;;;54.47;35.88;;;;;;;7.31;100.00;99144.94;5092003;28;20111;-77
2024/01/19 00:14:33;;;;;;;58.53;36.80;;;;;;;7.31;100.00;99152.91;5051046;28;1148206;-76
2024/01/19 00:16:59;;;;;;;52.17;34.72;;;;;;;7.27;100.00;99148.25;5060082;28;20040;-77
2024/01/19 00:19:24;;;;;;;57.03;35.80;;;;;;;7.22;100.00;99149.72;5079798;28;20067;-80
2024/01/19 00:21:50;;;;;;;56.67;36.78;;;;;;;7.36;100.00;99152.25;5091869;28;20016;-77
2024/01/19 00:24:16;;;;;;;56.45;34.25;;;;;;;7.13;100.00;99121.88;5092503;28;20020;-77
2024/01/19 00:26:44;;;;;;;59.15;36.60;;;;;;;7.20;100.00;99138.53;5081951;28;20033;-77
2024/01/19 00:29:10;;;;;;;57.28;35.38;;;;;;;7.39;100.00;99138.53;5074897;28;20047;-77
2024/01/19 00:31:35;;;;;;;53.78;34.75;;;;;;;7.41;100.00;99131.97;5072017;28;20087;-78
2024/01/19 00:34:03;;;;;;;53.78;34.88;;;;;;;7.28;100.00;99112.75;5054737;28;20036;-78
2024/01/19 00:36:28;;;;;;;53.90;35.22;;;;;;;7.42;100.00;99127.50;5073248;28;20029;-79
2024/01/19 00:38:54;;;;;;;53.13;34.08;;;;;;;7.46;100.00;99152.56;5073210;28;20396;-79
2024/01/19 00:41:23;;;;;;;52.95;33.08;;;;;;;7.39;100.00;99130.56;5093105;28;20073;-79
2024/01/19 00:43:48;;;;;;;52.03;34.65;;;;;;;7.55;100.00;99130.00;5093550;28;20024;-78
2024/01/19 00:46:14;;;;;;;50.25;32.40;;;;;;;7.46;100.00;99136.63;5088419;28;20495;-80
2024/01/19 00:48:39;;;;;;;48.67;32.67;;;;;;;7.33;100.00;99126.16;5072696;28;20028;-78
2024/01/19 00:51:05;;;;;;;51.78;33.88;;;;;;;7.57;100.00;99133.22;5054615;28;20485;-78
2024/01/19 00:53:30;;;;;;;48.08;31.70;;;;;;;7.37;100.00;99116.72;5070293;28;20043;-78
2024/01/19 00:55:56;;;;;;;49.10;32.70;;;;;;;7.19;100.00;99136.91;5070258;28;20028;-79
2024/01/19 00:58:21;;;;;;;46.05;31.25;;;;;;;6.95;100.00;99104.13;5090106;28;20577;-78
2024/01/19 01:00:47;;;;;;;49.53;32.60;;;;;;;6.77;100.00;99086.34;5076838;28;20517;-78
2024/01/19 01:03:22;;;;;;;52.35;35.30;;;;;;;6.72;100.00;99077.41;5069899;28;20685;-79
2024/01/19 01:05:47;;;;;;;53.30;35.28;;;;;;;6.97;100.00;99077.41;5070257;28;20029;-77
2024/01/19 01:08:12;;;;;;;56.65;37.50;;;;;;;7.05;100.00;99087.72;5051608;28;20062;-77
2024/01/19 01:10:38;;;;;;;56.58;37.45;;;;;;;6.67;100.00;99054.22;5053841;28;20060;-79
2024/01/19 01:13:03;;;;;;;54.13;35.35;;;;;;;7.00;100.00;99095.50;5051831;28;20059;-77
2024/01/19 01:15:29;;;;;;;53.33;36.53;;;;;;;7.13;100.00;99092.72;5069486;28;20040;-78
2024/01/19 01:17:54;;;;;;;54.25;35.55;;;;;;;6.99;100.00;99070.03;5069413;28;20168;-78
2024/01/19 01:20:20;;;;;;;52.80;37.17;;;;;;;6.97;100.00;99042.94;5071462;28;20030;-78
2024/01/19 01:22:45;;;;;;;59.28;42.78;;;;;;;7.20;100.00;99068.78;5069307;28;20024;-78
2024/01/19 01:25:11;;;;;;;61.38;40.88;;;;;;;7.34;100.00;99080.06;5069353;28;20081;-79
2024/01/19 01:27:36;;;;;;;61.80;41.28;;;;;;;7.21;100.00;99055.31;5051334;28;20432;-78
2024/01/19 01:30:07;;;;;;;62.15;37.47;;;;;;;7.21;100.00;99060.63;5071518;28;20166;-76
2024/01/19 01:32:33;;;;;;;57.45;37.83;;;;;;;7.10;100.00;99049.94;5069182;28;20020;-78
2024/01/19 01:34:58;;;;;;;56.63;38.55;;;;;;;7.22;100.00;99051.59;5069297;28;20039;-78
2024/01/19 01:37:24;;;;;;;57.53;38.75;;;;;;;7.09;100.00;99030.56;5051114;28;20447;-80
2024/01/19 01:39:49;;;;;;;54.58;38.42;;;;;;;7.13;100.00;99031.75;5070226;28;20036;-77
2024/01/19 01:42:15;;;;;;;54.72;36.95;;;;;;;7.19;100.00;99030.03;5088142;28;20107;-77
2024/01/19 01:44:40;;;;;;;62.10;40.92;;;;;;;7.09;100.00;99004.06;5089587;28;20119;-77
2024/01/19 01:47:05;;;;;;;61.83;41.92;;;;;;;7.37;100.00;99021.25;5084098;28;20104;-78
2024/01/19 01:49:31;;;;;;;69.00;49.80;;;;;;;7.23;100.00;99010.81;5051192;28;20094;-79
2024/01/19 01:51:57;;;;;;;61.35;46.38;;;;;;;7.17;100.00;99014.34;5071715;28;20025;-77
2024/01/19 01:54:23;;;;;;;61.45;44.90;;;;;;;7.34;100.00;99035.78;5069010;28;20596;-77
2024/01/19 01:56:49;;;;;;;56.70;40.08;;;;;;;7.16;100.00;99015.38;5068748;28;20027;-78
2024/01/19 01:59:15;;;;;;;55.28;37.88;;;;;;;7.26;100.00;99014.84;5068547;28;20449;-77
2024/01/19 02:01:40;;;;;;;53.80;36.70;;;;;;;7.26;100.00;99014.06;5071135;28;20052;-77
2024/01/19 02:04:09;;;;;;;53.88;38.15;;;;;;;7.32;100.00;99029.06;5068558;28;20030;-78
2024/01/19 02:06:34;;;;;;;;;;;;;;;7.27;100.00;99034.22;5051511;28;20028;-78
2024/01/19 02:09:00;;;;;;;49.72;35.67;;;;;;;7.09;100.00;99019.97;5086679;28;19953;-77
2024/01/19 02:11:25;;;;;;;50.83;34.00;;;;;;;7.16;100.00;99018.03;5087087;28;20554;-79
2024/01/19 02:13:50;;;;;;;49.17;34.20;;;;;;;7.13;100.00;99030.91;5088337;28;20034;-77
2024/01/19 02:16:16;;;;;;;51.60;32.58;;;;;;;6.88;100.00;99033.63;5088756;28;20023;-77
2024/01/19 02:18:41;;;;;;;48.92;31.80;;;;;;;7.06;100.00;99041.59;5073862;28;20031;-77
2024/01/19 02:21:07;;;;;;;47.55;30.70;;;;;;;6.75;100.00;98998.28;5075504;28;20413;-78
2024/01/19 02:23:39;;;;;;;45.70;31.25;;;;;;;7.19;100.00;99041.47;5088843;28;20024;-78
2024/01/19 02:26:05;;;;;;;43.70;29.38;;;;;;;6.97;100.00;99027.03;5088462;28;20472;-79
2024/01/19 02:28:31;;;;;;;43.97;29.38;;;;;;;6.96;100.00;99022.75;5088415;28;20042;-80
2024/01/19 02:30:56;;;;;;;45.75;29.42;;;;;;;6.96;100.00;99030.69;5084050;28;20028;-77
2024/01/19 02:33:22;;;;;;;43.03;28.08;;;;;;;7.12;100.00;99030.09;5067720;28;20032;-77
2024/01/19 02:35:47;;;;;;;40.05;26.60;;;;;;;7.08;100.00;99036.88;5050128;28;20131;-78
2024/01/19 02:38:12;;;;;;;37.50;26.65;;;;;;;7.03;100.00;99026.16;5068144;28;20104;-77
2024/01/19 02:40:38;;;;;;;41.88;27.55;;;;;;;7.10;100.00;98999.56;5068706;28;20595;-78
2024/01/19 02:43:03;;;;;;;42.92;27.58;;;;;;;7.20;100.00;99011.25;5087789;28;20407;-78
2024/01/19 02:45:29;;;;;;;41.53;26.23;;;;;;;7.35;100.00;99028.63;5088030;28;20020;-78
2024/01/19 02:47:54;;;;;;;42.33;26.05;;;;;;;7.30;100.00;99026.63;5082881;28;20040;-78
2024/01/19 02:50:19;;;;;;;34.92;23.35;;;;;;;6.91;100.00;99017.31;5068170;28;20032;-76
2024/01/19 02:52:45;;;;;;;43.15;27.00;;;;;;;7.02;100.00;99027.97;5067209;28;20031;-79
2024/01/19 02:55:11;;;;;;;35.60;25.00;;;;;;;7.12;100.00;99040.72;5087983;28;20123;-77
2024/01/19 02:57:36;;;;;;;40.13;26.20;;;;;;;7.15;100.00;99036.81;5086894;28;20066;-77
2024/01/19 03:00:03;;;;;;;41.53;26.85;;;;;;;7.13;100.00;99029.09;5049641;28;20052;-78
2024/01/19 03:02:29;;;;;;;40.72;25.42;;;;;;;7.02;100.00;99035.13;5083233;28;20036;-79
2024/01/19 03:04:54;;;;;;;41.70;26.60;;;;;;;7.23;100.00;99047.09;5087789;28;20020;-77
2024/01/19 03:07:20;;;;;;;39.80;26.58;;;;;;;7.04;100.00;99048.97;5088081;28;20031;-77
2024/01/19 03:09:45;;;;;;;33.88;23.17;;;;;;;6.69;100.00;99014.28;5069527;28;20029;-78
2024/01/19 03:12:10;;;;;;;37.85;23.42;;;;;;;6.99;100.00;99052.28;5070615;28;20029;-77
2024/01/19 03:14:36;;;;;;;36.85;24.90;;;;;;;6.75;100.00;99046.00;5067475;28;20071;-77
2024/01/19 03:17:01;;;;;;;40.15;25.73;;;;;;;6.67;100.00;99048.13;5049699;28;20089;-78
2024/01/19 03:19:27;;;;;;;36.63;24.58;;;;;;;6.31;100.00;99018.66;5067476;28;20067;-79
2024/01/19 03:21:52;;;;;;;38.65;25.40;;;;;;;6.61;100.00;99053.25;5069774;28;20103;-77
2024/01/19 03:24:17;;;;;;;39.33;27.17;;;;;;;6.93;100.00;99068.25;5067299;28;20082;-78
2024/01/19 03:26:43;;;;;;;41.88;28.23;;;;;;;6.77;100.00;99067.78;5067503;28;20685;-78
2024/01/19 03:29:09;;;;;;;44.88;29.45;;;;;;;6.33;100.00;99042.28;5067598;28;20031;-78
2024/01/19 03:31:34;;;;;;;41.88;28.55;;;;;;;6.54;100.00;99043.72;5069867;28;20373;-77
2024/01/19 03:34:00;;;;;;;39.58;26.85;;;;;;;6.75;100.00;99061.88;5049661;28;20037;-77
2024/01/19 03:36:25;;;;;;;42.20;26.92;;;;;;;6.73;100.00;99050.69;5081411;28;20047;-77
2024/01/19 03:38:51;;;;;;;42.88;28.30;;;;;;;6.68;100.00;99047.91;5080394;28;20460;-78
2024/01/19 03:41:16;;;;;;;43.08;28.58;;;;;;;6.64;100.00;99044.06;5049477;28;20028;-76
2024/01/19 03:43:44;;;;;;;43.38;29.10;;;;;;;6.81;100.00;99060.22;5087422;28;20107;-76
2024/01/19 03:46:09;;;;;;;40.58;28.45;;;;;;;6.78;100.00;99066.78;5087713;28;20084;-77
2024/01/19 03:48:34;;;;;;;46.53;31.15;;;;;;;6.46;100.00;99062.53;5083147;28;20028;-77
2024/01/19 03:51:00;;;;;;;53.33;37.35;;;;;;;6.32;100.00;99070.63;5067635;28;20056;-77
2024/01/19 03:53:26;;;;;;;54.50;37.20;;;;;;;6.31;100.00;99061.03;5069373;28;20029;-79
2024/01/19 03:55:51;;;;;;;54.80;36.78;;;;;;;6.20;100.00;99069.69;5067338;28;20029;-77
2024/01/19 03:58:17;;;;;;;56.78;38.88;;;;;;;6.10;100.00;99064.84;5067238;28;20039;-76
2024/01/19 04:00:42;;;;;;;41.60;27.58;;;;;;;5.70;100.00;99045.72;5066930;28;20116;-77
2024/01/19 04:03:08;;;;;;;42.83;28.67;;;;;;;5.83;100.00;99072.94;5069413;28;20040;-77
2024/01/19 04:05:33;;;;;;;42.83;29.00;;;;;;;6.03;100.00;99086.09;5067639;28;20025;-77
2024/01/19 04:07:58;;;;;;;57.35;37.13;;;;;;;6.01;100.00;99068.81;5071023;28;20037;-77
2024/01/19 04:10:24;;;;;;;49.40;31.50;;;;;;;6.18;100.00;99069.88;5070432;28;20028;-77
2024/01/19 04:12:51;;;;;;;47.22;30.70;;;;;;;6.43;100.00;99096.38;5072898;28;20128;-77
2024/01/19 04:15:17;;;;;;;50.63;32.23;;;;;;;6.64;100.00;99097.06;5070548;28;20056;-77
2024/01/19 04:17:42;;;;;;;51.47;33.30;;;;;;;6.78;100.00;99109.16;5070921;28;20612;-77
2024/01/19 04:20:08;;;;;;;55.33;34.25;;;;;;;6.77;100.00;99109.38;5070532;28;20115;-76
2024/01/19 04:22:33;;;;;;;51.85;34.15;;;;;;;6.64;100.00;99091.75;5072829;28;20025;-76
2024/01/19 04:24:59;;;;;;;63.42;44.60;;;;;;;6.62;100.00;99115.00;5070554;28;20100;-78
2024/01/19 04:27:24;;;;;;;58.53;35.80;;;;;;;6.72;100.00;99120.63;5070490;28;20057;-76
2024/01/19 04:29:49;;;;;;;61.20;39.33;;;;;;;6.69;100.00;99114.94;5070774;28;20428;-77
2024/01/19 04:32:15;;;;;;;60.30;38.53;;;;;;;6.63;100.00;99106.03;5072737;28;20067;-78
2024/01/19 04:34:40;;;;;;;57.67;37.13;;;;;;;6.64;100.00;99099.72;5052371;28;20101;-77
2024/01/19 04:37:06;;;;;;;63.70;42.00;;;;;;;6.71;100.00;99124.28;5075621;28;20024;-77
2024/01/19 04:39:31;;;;;;;68.78;46.80;;;;;;;6.72;100.00;99120.63;5081175;28;20012;-78
2024/01/19 04:41:56;;;;;;;90.95;62.35;;;;;;;6.12;100.00;99096.41;5062896;28;20157;-78
2024/01/19 04:44:22;;;;;;;97.00;62.45;;;;;;;6.33;100.00;99117.22;5060505;28;20020;-77
2024/01/19 04:46:47;;;;;;;92.85;57.60;;;;;;;6.47;100.00;99111.84;5079019;28;20024;-76
2024/01/19 04:49:12;;;;;;;84.63;57.53;;;;;;;6.29;100.00;99089.56;5081174;28;20107;-76
2024/01/19 04:51:38;;;;;;;82.57;56.10;;;;;;;6.58;100.00;99121.78;5078771;28;20031;-76
2024/01/19 04:54:03;;;;;;;78.25;53.58;;;;;;;6.54;100.00;99110.78;5074769;28;20123;-76
2024/01/19 04:56:29;;;;;;;78.25;53.50;;;;;;;6.51;100.00;99121.00;5052095;28;20025;-78
2024/01/19 04:58:54;;;;;;;75.13;52.33;;;;;;;6.55;100.00;99124.84;5070148;28;20494;-78
2024/01/19 05:01:20;;;;;;;75.50;50.70;;;;;;;6.54;100.00;99123.19;5069596;28;20107;-76
2024/01/19 05:03:45;;;;;;;74.20;49.10;;;;;;;6.56;100.00;99121.97;5072207;28;20024;-78
2024/01/19 05:06:13;;;;;;;69.97;51.03;;;;;;;6.62;100.00;99115.81;5070180;28;20113;-77
2024/01/19 05:08:39;;;;;;;;;;;;;;;6.69;100.00;99125.53;5070455;28;20170;-77
2024/01/19 05:11:05;;;;;;;74.20;52.45;;;;;;;6.43;100.00;99122.88;5069283;28;19938;-76
2024/01/19 05:13:30;;;;;;;76.07;51.55;;;;;;;6.67;100.00;99135.56;5078559;28;20115;-78
2024/01/19 05:15:58;;;;;;;73.25;51.45;;;;;;;6.62;100.00;99128.25;5089902;28;20076;-77
2024/01/19 05:18:23;;;;;;;81.35;54.10;;;;;;;6.39;100.00;99113.72;5088693;28;20052;-77
2024/01/19 05:20:49;;;;;;;95.07;62.95;;;;;;;6.52;100.00;99123.44;5077021;28;20132;-77
2024/01/19 05:23:14;;;;;;;87.85;58.35;;;;;;;6.55;100.00;99141.53;5071849;28;20021;-77
2024/01/19 05:25:39;;;;;;;79.93;54.85;;;;;;;6.52;100.00;99136.69;5069493;28;20028;-76
2024/01/19 05:28:05;;;;;;;117.32;70.20;;;;;;;6.58;100.00;99145.63;5069349;28;20052;-77
2024/01/19 05:30:30;;;;;;;166.27;98.53;;;;;;;6.58;100.00;99153.56;5051021;28;20404;-77
2024/01/19 05:32:56;;;;;;;142.63;79.93;;;;;;;6.49;100.00;99147.69;5070969;28;20040;-77
2024/01/19 05:35:21;;;;;;;125.13;72.18;;;;;;;6.42;100.00;99137.16;5070842;28;20044;-77
2024/01/19 05:37:47;;;;;;;134.02;75.53;;;;;;;6.50;100.00;99151.13;5089558;28;20016;-77
2024/01/19 05:40:12;;;;;;;141.48;82.88;;;;;;;6.52;100.00;99157.03;5083509;28;20056;-77
2024/01/19 05:42:38;;;;;;;124.57;69.88;;;;;;;6.39;100.00;99152.66;5068982;28;20025;-77
2024/01/19 05:45:03;;;;;;;115.38;64.03;;;;;;;6.49;100.00;99160.94;5071690;28;20039;-77
2024/01/19 05:47:29;;;;;;;106.28;61.40;;;;;;;6.38;100.00;99161.63;5068901;28;20033;-76
2024/01/19 05:49:54;;;;;;;91.63;53.33;;;;;;;6.36;100.00;99143.31;5050707;28;20029;-77
2024/01/19 05:52:20;;;;;;;104.70;59.10;;;;;;;6.42;100.00;99137.16;5050846;28;20587;-78
2024/01/19 05:54:45;;;;;;;109.15;65.03;;;;;;;6.41;100.00;99151.41;5070917;28;20028;-78
2024/01/19 05:57:10;;;;;;;89.50;55.25;;;;;;;6.29;100.00;99157.59;5068735;28;20024;-77
2024/01/19 05:59:38;;;;;;;70.75;45.25;;;;;;;6.29;100.00;99163.69;5072630;28;20109;-76
2024/01/19 06:02:04;;;;;;;63.72;39.67;;;;;;;6.30;100.00;99144.16;5088763;28;20051;-77
2024/01/19 06:04:33;;;;;;;57.92;36.65;;;;;;;6.35;100.00;99152.25;5077513;28;20043;-77
2024/01/19 06:06:58;;;;;;;;;;;;;;;6.54;100.00;99170.88;5069462;28;20048;-76
2024/01/19 06:09:23;;;;;;;56.50;34.55;;;;;;;6.24;100.00;99145.81;5069050;28;19962;-77
2024/01/19 06:11:49;;;;;;;50.83;31.17;;;;;;;6.20;100.00;99144.63;5085018;28;20130;-77
2024/01/19 06:14:14;;;;;;;62.45;28.23;;;;;;;6.26;100.00;99158.84;5087947;28;20036;-76
2024/01/19 06:16:40;;;;;;;95.68;28.42;;;;;;;6.33;100.00;99164.91;5088628;28;20503;-76
2024/01/19 06:19:05;;;;;;;116.15;30.45;;;;;;;6.39;100.00;99164.03;5088733;28;20027;-76
2024/01/19 06:21:30;;;;;;;124.78;32.90;;;;;;;6.30;100.00;99175.94;5057883;28;20051;-78
2024/01/19 06:23:56;;;;;;;102.60;36.30;;;;;;;6.10;100.00;99172.59;5071028;28;20046;-77
2024/01/19 06:26:21;;;;;;;160.32;32.83;;;;;;;6.00;100.00;99176.47;5068203;28;20115;-76
2024/01/19 06:28:46;;;;;;;157.43;31.67;;;;;;;6.09;100.00;99192.13;5068198;28;20028;-77
2024/01/19 06:31:12;;;;;;;183.55;46.72;;;;;;;6.06;100.00;99181.97;5067915;28;20020;-78
2024/01/19 06:33:37;;;;;;;178.65;47.40;;;;;;;6.12;100.00;99179.28;5069602;28;20416;-77
2024/01/19 06:36:09;;;;;;;263.48;45.88;;;;;;;6.33;100.00;99201.97;5088065;28;20082;-77
2024/01/19 06:38:35;;;;;;;321.58;98.05;;;;;;;6.13;100.00;99166.84;5088395;28;20028;-76
2024/01/19 06:41:00;;;;;;;216.95;46.70;;;;;;;6.17;100.00;99186.56;5081888;28;20082;-77
2024/01/19 06:43:26;;;;;;;167.25;35.58;;;;;;;6.31;100.00;99193.44;5067635;28;20032;-76
2024/01/19 06:45:51;;;;;;;81.40;32.00;;;;;;;6.33;100.00;99190.56;5086687;28;20028;-76
2024/01/19 06:48:17;;;;;;;86.30;32.25;;;;;;;6.51;100.00;99203.09;5087828;28;20055;-77
2024/01/19 06:50:42;;;;;;;95.00;34.63;;;;;;;6.66;100.00;99211.59;5069524;28;20020;-77
2024/01/19 06:53:07;;;;;;;77.22;32.08;;;;;;;6.73;100.00;99212.34;5088327;28;20134;-76
2024/01/19 06:55:33;;;;;;;74.10;36.90;;;;;;;6.91;100.00;99221.41;5074941;28;20477;-78
2024/01/19 06:57:58;;;;;;;50.53;28.20;;;;;;;7.02;100.00;99216.19;5067533;28;20039;-77
2024/01/19 07:00:24;;;;;;;53.97;28.77;;;;;;;7.18;100.00;99206.88;5049704;28;20020;-77
2024/01/19 07:02:49;;;;;;;81.88;36.15;;;;;;;7.06;100.00;99200.66;5067170;28;20432;-76
2024/01/19 07:05:16;;;;;;;50.67;29.30;;;;;;;7.13;100.00;99205.91;5079103;28;20053;-75
2024/01/19 07:07:41;;;;;;;56.47;29.00;;;;;;;6.94;100.00;99205.03;5087802;28;20032;-75
2024/01/19 07:10:07;;;;;;;53.10;25.75;;;;;;;6.84;100.00;99195.75;5087954;28;20031;-76
2024/01/19 07:12:33;;;;;;;64.82;24.58;;;;;;;6.78;100.00;99196.63;5087720;28;20040;-77
2024/01/19 07:14:58;;;;;;;71.32;25.77;;;;;;;7.10;100.00;99212.47;5081401;28;20591;-77
2024/01/19 07:17:23;;;;;;;48.20;30.08;;;;;;;7.31;100.00;99207.78;5061266;28;20032;-76
2024/01/19 07:19:49;;;;;;;157.45;50.90;;;;;;;7.39;100.00;99215.47;5081718;28;20059;-77
2024/01/19 07:22:14;;;;;;;87.45;31.70;;;;;;;7.59;100.00;99216.06;5087518;28;20158;-77
2024/01/19 07:24:40;;;;;;;63.10;31.02;;;;;;;7.53;100.00;99216.94;5084006;28;20028;-78
2024/01/19 07:27:05;;;;;;;105.28;43.03;;;;;;;7.89;100.00;99204.75;5067665;28;20020;-78
2024/01/19 07:29:34;;;;;;;93.47;42.80;;;;;;;8.22;100.00;99220.25;5049504;28;20035;-77
2024/01/19 07:31:59;;;;;;;45.67;27.50;;;;;;;8.37;100.00;99225.16;5075866;28;20036;-77
2024/01/19 07:34:25;;;;;;;40.70;25.52;;;;;;;8.44;100.00;99217.16;5085914;28;20036;-78
2024/01/19 07:36:51;;;;;;;51.78;25.95;;;;;;;8.76;100.00;99222.19;5087289;28;20510;-78
2024/01/19 07:39:23;;;;;;;43.38;26.38;;;;;;;8.98;100.00;99207.31;5069480;28;20173;-77
2024/01/19 07:41:49;;;;;;;47.40;32.47;;;;;;;8.89;100.00;99181.28;5084214;28;20064;-77
2024/01/19 07:44:14;;;;;;;373.98;292.83;;;;;;;8.92;100.00;99180.84;5070952;28;20032;-77
2024/01/19 07:46:40;;;;;;;371.55;291.15;;;;;;;9.23;100.00;99203.66;5072045;28;20028;-77
2024/01/19 07:49:05;;;;;;;104.22;80.32;;;;;;;9.26;100.00;99187.25;5090998;28;20322;-76
2024/01/19 07:51:31;;;;;;;45.35;31.30;;;;;;;9.48;100.00;99176.81;5091311;28;20032;-77
2024/01/19 07:53:56;;;;;;;35.53;24.00;;;;;;;9.60;100.00;99180.28;5091698;28;20032;-77
2024/01/19 07:56:21;;;;;;;35.00;23.48;;;;;;;9.74;100.00;99180.81;5076416;28;20466;-77
2024/01/19 07:58:47;;;;;;;35.92;23.65;;;;;;;9.97;100.00;99193.28;5070996;28;20028;-77
2024/01/19 08:01:12;;;;;;;32.55;22.48;;;;;;;10.00;100.00;99174.13;5052533;28;20557;-77
2024/01/19 08:03:38;;;;;;;47.33;37.15;;;;;;;10.43;100.00;99212.81;5070403;28;20039;-76
2024/01/19 08:06:04;;;;;;;37.50;27.10;;;;;;;10.32;100.00;99200.34;5064612;28;20085;-77
2024/01/19 08:08:30;;;;;;;33.05;22.95;;;;;;;10.79;100.00;99210.78;5090682;28;20028;-77
2024/01/19 08:10:55;;;;;;;31.40;21.27;;;;;;;10.89;100.00;99212.00;5091034;28;20028;-77
2024/01/19 08:13:21;;;;;;;29.48;20.70;;;;;;;10.92;100.00;99203.53;5090896;28;20119;-77
2024/01/19 08:15:46;;;;;;;33.80;21.63;;;;;;;11.43;100.00;99214.97;5071843;28;20123;-77
2024/01/19 08:18:11;;;;;;;39.45;32.22;;;;;;;11.31;100.00;99195.56;5091128;28;20036;-76
2024/01/19 08:20:37;;;;;;;31.33;21.20;;;;;;;11.52;100.00;99208.13;5090583;28;20039;-77
2024/01/19 08:23:02;;;;;;;33.47;21.52;;;;;;;11.64;100.00;99216.84;5078474;28;20128;-76
2024/01/19 08:25:28;;;;;;;29.55;19.92;;;;;;;11.64;100.00;99224.88;5073033;28;20034;-78
2024/01/19 08:27:53;;;;;;;28.70;19.90;;;;;;;11.77;100.00;99241.59;5070364;28;20074;-77
2024/01/19 08:30:20;;;;;;;28.08;18.55;;;;;;;11.60;100.00;99226.41;5070323;28;20082;-76
2024/01/19 08:32:45;;;;;;;26.75;18.83;;;;;;;11.60;100.00;99229.09;5070309;28;20097;-77
2024/01/19 08:35:11;;;;;;;30.35;20.17;;;;;;;11.81;100.00;99243.53;5071735;28;20832;-77
2024/01/19 08:37:38;;;;;;;30.25;20.38;;;;;;;11.81;100.00;99248.06;5071214;28;20052;-76
2024/01/19 08:40:07;;;;;;;29.13;19.80;;;;;;;11.89;100.00;99250.38;5070198;28;20093;-77
2024/01/19 08:42:33;;;;;;;30.55;20.75;;;;;;;11.83;100.00;99225.41;5070097;28;20039;-77
2024/01/19 08:44:59;;;;;;;39.35;29.55;;;;;;;11.95;100.00;99237.84;5070318;28;20033;-77
2024/01/19 08:47:25;;;;;;;26.73;18.27;;;;;;;11.92;100.00;99255.19;5072520;28;20032;-77
2024/01/19 08:49:50;;;;;;;32.30;19.95;;;;;;;11.87;100.00;99241.75;5069629;28;20033;-77
2024/01/19 08:52:15;;;;;;;27.92;19.48;;;;;;;11.84;100.00;99244.91;5069773;28;20093;-77
2024/01/19 08:54:41;;;;;;;33.38;21.40;;;;;;;12.05;100.00;99248.66;5070095;28;20107;-77
2024/01/19 08:57:06;;;;;;;28.63;19.80;;;;;;;12.05;100.00;99249.50;5086396;28;20499;-77
2024/01/19 08:59:32;;;;;;;30.33;20.88;;;;;;;12.22;100.00;99253.97;5089708;28;20031;-76
2024/01/19 09:01:57;;;;;;;28.30;19.67;;;;;;;12.32;100.00;99259.44;5089617;28;20020;-76
2024/01/19 09:04:24;;;;;;;25.85;17.80;;;;;;;12.54;100.00;99255.91;5089990;28;20031;-77
2024/01/19 09:06:49;;;;;;;28.50;20.40;;;;;;;12.80;100.00;99256.97;5080380;28;20044;-76
2024/01/19 09:09:15;;;;;;;38.05;26.58;;;;;;;12.73;100.00;99254.53;5069540;28;20032;-78
2024/01/19 09:11:40;;;;;;;30.15;20.23;;;;;;;12.70;100.00;99240.84;5069184;28;20021;-76
2024/01/19 09:14:09;;;;;;;27.67;19.02;;;;;;;12.72;100.00;99244.06;5069497;28;20441;-76
2024/01/19 09:16:35;;;;;;;23.67;18.10;;;;;;;13.16;100.00;99251.94;5078185;28;20043;-78
2024/01/19 09:19:00;;;;;;;30.08;19.10;;;;;;;13.51;100.00;99251.44;5089502;28;20035;-76
2024/01/19 09:21:26;;;;;;;26.02;17.10;;;;;;;13.42;100.00;99229.69;5089664;28;20032;-76
2024/01/19 09:23:51;;;;;;;25.05;16.92;;;;;;;13.74;100.00;99257.47;5089291;28;20032;-76
2024/01/19 09:26:21;;;;;;;22.92;16.92;;;;;;;13.97;100.00;99257.03;5086770;28;20150;-77
2024/01/19 09:28:47;;;;;;;23.95;17.45;;;;;;;13.71;100.00;99232.00;5068927;28;20394;-77
2024/01/19 09:31:13;;;;;;;23.00;16.38;;;;;;;13.97;100.00;99234.78;5051740;28;20031;-75
2024/01/19 09:33:39;;;;;;;24.75;17.75;;;;;;;14.00;100.00;99251.16;5072020;28;21249;-77
2024/01/19 09:36:05;;;;;;;30.60;20.98;;;;;;;13.77;100.00;99240.84;5078376;28;20039;-77
2024/01/19 09:38:34;;;;;;;27.45;19.23;;;;;;;13.76;100.00;99234.69;5076833;28;20028;-77
2024/01/19 09:41:31;;;;;;;19.08;13.80;;;;;;;14.20;100.00;99255.81;5078257;28;20112;-78
2024/01/19 09:44:00;;;;;;;21.43;14.47;;;;;;;14.55;100.00;99238.22;5075700;28;20024;-77
2024/01/19 09:46:30;;;;;;;22.70;17.35;;;;;;;14.71;100.00;99239.06;5074749;28;20077;-77
2024/01/19 09:48:55;;;;;;;16.38;11.15;;;;;;;14.77;100.00;99251.44;5089044;28;20032;-77
2024/01/19 09:51:27;;;;;;;15.48;11.50;;;;;;;14.80;100.00;99248.19;5089073;28;20081;-77
2024/01/19 09:53:59;;;;;;;173.38;157.57;;;;;;;14.96;100.00;99245.53;5088573;28;20408;-77
2024/01/19 09:56:24;;;;;;;17.38;11.48;;;;;;;14.98;100.00;99243.41;5082331;28;20111;-76
2024/01/19 09:58:54;;;;;;;17.50;12.38;;;;;;;14.84;100.00;99243.91;5078038;28;20116;-78
2024/01/19 10:01:20;;;;;;;18.42;12.43;;;;;;;14.84;100.00;99227.81;5078335;28;20024;-77
2024/01/19 10:03:47;;;;;;;16.67;11.18;;;;;;;14.90;100.00;99227.81;5077029;28;20028;-77
2024/01/19 10:06:13;;;;;;;15.10;10.88;;;;;;;15.10;100.00;99225.13;5074105;28;20123;-77
2024/01/19 10:08:39;;;;;;;17.65;11.32;;;;;;;14.92;100.00;99214.94;5079081;28;20099;-78
2024/01/19 10:11:05;;;;;;;17.25;12.52;;;;;;;15.19;100.00;99179.75;5081043;28;20024;-76
2024/01/19 10:13:30;;;;;;;15.38;10.68;;;;;;;15.92;100.00;99208.88;5088645;28;20028;-77
2024/01/19 10:15:55;;;;;;;25.35;17.40;;;;;;;16.41;100.00;99189.25;5069737;28;20135;-77
2024/01/19 10:18:21;;;;;;;15.60;11.15;;;;;;;16.51;100.00;99192.94;5086551;28;20127;-78
2024/01/19 10:20:49;;;;;;;15.10;10.40;;;;;;;16.76;100.00;99203.56;5088295;28;20107;-77
2024/01/19 10:23:19;;;;;;;12.82;9.82;;;;;;;16.36;100.00;99197.34;5088181;28;20032;-77
2024/01/19 10:25:44;;;;;;;16.67;10.68;;;;;;;16.63;100.00;99182.63;5088168;28;20071;-77
2024/01/19 10:28:11;;;;;;;13.93;10.65;;;;;;;16.80;100.00;99174.97;5074850;28;20037;-77
2024/01/19 10:30:37;;;;;;;15.73;10.55;;;;;;;16.79;100.00;99169.88;5067616;28;20025;-78
2024/01/19 10:33:05;;;;;;;14.55;10.13;;;;;;;16.57;100.00;99165.75;5068144;28;20033;-77
2024/01/19 10:35:31;;;;;;;14.77;9.82;;;;;;;16.61;100.00;99153.34;5077888;28;20074;-77
2024/01/19 10:38:06;;;;;;;16.33;10.82;;;;;;;16.54;100.00;99165.50;5075711;28;20036;-77
2024/01/19 10:40:35;;;;;;;14.35;10.18;;;;;;;16.46;100.00;99173.06;5070499;28;20073;-76
2024/01/19 10:43:00;;;;;;;14.13;9.45;;;;;;;16.78;100.00;99177.16;5067509;28;20033;-77
2024/01/19 10:45:29;;;;;;;16.73;10.80;;;;;;;16.87;100.00;99180.88;5067831;28;20055;-78
2024/01/19 10:47:57;;;;;;;14.65;10.02;;;;;;;16.81;100.00;99165.84;5059641;28;20062;-77
2024/01/19 10:50:26;;;;;;;13.95;9.25;;;;;;;16.95;100.00;99162.50;5070004;28;20416;-77
2024/01/19 10:52:53;;;;;;;13.50;10.00;;;;;;;16.82;100.00;99167.44;5088178;28;20085;-77
2024/01/19 10:55:22;;;;;;;12.10;9.55;;;;;;;17.46;100.00;99175.47;5088026;28;20036;-77
2024/01/19 10:57:51;;;;;;;16.73;10.45;;;;;;;17.61;100.00;99175.31;5077761;28;20028;-76
2024/01/19 11:00:27;;;;;;;33.40;30.10;;;;;;;18.13;100.00;99182.81;5067793;28;20029;-76
2024/01/19 11:02:58;;;;;;;14.40;10.05;;;;;;;18.38;100.00;99192.44;5067552;28;20033;-77
2024/01/19 11:05:24;;;;;;;15.05;10.60;;;;;;;18.52;100.00;99176.31;5067729;28;20029;-78
2024/01/19 11:07:51;;;;;;;14.32;9.90;;;;;;;18.78;100.00;99174.81;5069873;28;20039;-77
2024/01/19 11:10:19;;;;;;;11.97;9.60;;;;;;;19.26;98.41;99152.13;5067558;28;20020;-77